Terminal Aerodrome Forecast
Issued by NWS Grand Forks, ND

Home | Current Version | Previous Version | Text Only | Print | Product List | Glossary On
Versions: 1 2 3 4 5 6 7 8 9 10 11 12 13 14 15 16 17 18
000
FTUS43 KFGF 241100
TAFFAR
TAF
KFAR 241126Z 2412/2512 15007KT P6SM OVC025
      TEMPO 2412/2416 5SM -RA BR OVC040
     FM241800 20008KT P6SM BKN030
     FM242000 25010KT P6SM BKN040
      TEMPO 2421/2424 5SM -TSRA BKN040CB
     FM250000 26005KT P6SM SCT040=

USA.gov is the U.S. government's official web portal to all federal, state and local government web resources and services.